createdAt,value
2023-03-30T00:01:17.167Z,2.15
2023-03-30T00:03:46.307Z,1.90
2023-03-30T00:06:21.107Z,1.80
2023-03-30T00:08:49.093Z,1.75
2023-03-30T00:11:17.346Z,2.05
2023-03-30T00:13:45.332Z,1.73
2023-03-30T00:16:16.001Z,2.20
2023-03-30T00:18:45.016Z,1.90
2023-03-30T00:21:12.861Z,2.13
2023-03-30T00:23:40.646Z,2.05
2023-03-30T00:26:08.711Z,1.48
2023-03-30T00:28:36.362Z,2.10
2023-03-30T00:31:04.118Z,1.98
2023-03-30T00:33:44.920Z,1.90
2023-03-30T00:36:13.933Z,1.67
2023-03-30T00:38:41.666Z,1.80
2023-03-30T00:41:09.665Z,2.20
2023-03-30T00:43:55.711Z,2.00
2023-03-30T00:46:25.009Z,2.10
2023-03-30T00:48:57.700Z,1.73
2023-03-30T00:51:26.403Z,1.60
2023-03-30T00:53:57.004Z,1.92
2023-03-30T00:56:28.364Z,2.20
2023-03-30T00:58:56.173Z,2.17
2023-03-30T01:01:28.695Z,1.60
2023-03-30T01:03:59.376Z,2.35
2023-03-30T01:06:29.942Z,2.00
2023-03-30T01:08:58.912Z,2.50
2023-03-30T01:11:27.729Z,2.70
2023-03-30T01:13:58.380Z,1.70
2023-03-30T01:16:30.223Z,2.30
2023-03-30T01:19:07.703Z,1.92
2023-03-30T01:22:00.250Z,2.20
2023-03-30T01:25:03.598Z,2.47
2023-03-30T01:28:11.138Z,2.40
2023-03-30T01:30:55.114Z,2.17
2023-03-30T01:33:53.288Z,2.97
2023-03-30T01:36:45.641Z,2.42
2023-03-30T01:39:37.768Z,2.83
2023-03-30T01:42:10.446Z,3.05
2023-03-30T01:44:44.834Z,2.60
2023-03-30T01:47:17.609Z,2.92
2023-03-30T01:49:47.221Z,3.40
2023-03-30T01:52:17.188Z,2.63
2023-03-30T01:54:48.610Z,1.50
2023-03-30T01:57:19.311Z,2.63
2023-03-30T01:59:52.541Z,2.60
2023-03-30T02:02:22.779Z,2.60
2023-03-30T02:04:53.848Z,2.55
2023-03-30T02:07:24.093Z,2.30
2023-03-30T02:09:55.369Z,2.70
2023-03-30T02:12:23.736Z,2.47
2023-03-30T02:14:52.432Z,2.55
2023-03-30T02:17:24.520Z,3.13
2023-03-30T02:19:54.566Z,2.65
2023-03-30T02:22:22.086Z,2.67
2023-03-30T02:24:52.254Z,2.67
2023-03-30T02:27:22.669Z,3.00
2023-03-30T02:29:50.522Z,2.35
2023-03-30T02:32:20.708Z,2.15
2023-03-30T02:35:03.860Z,2.20
2023-03-30T02:37:44.937Z,2.47
2023-03-30T02:40:23.867Z,2.33
2023-03-30T02:43:03.495Z,2.33
2023-03-30T02:45:41.960Z,2.50
2023-03-30T02:48:18.790Z,2.45
2023-03-30T02:50:49.967Z,2.58
2023-03-30T02:53:43.244Z,2.30
2023-03-30T02:56:19.291Z,2.75
2023-03-30T02:58:57.907Z,2.45
2023-03-30T03:01:28.792Z,2.45
2023-03-30T03:04:11.411Z,2.85
2023-03-30T03:06:56.628Z,2.50
2023-03-30T03:09:26.056Z,2.20
2023-03-30T03:11:53.664Z,3.10
2023-03-30T03:14:22.935Z,3.53
2023-03-30T03:16:50.570Z,3.17
2023-03-30T03:19:19.372Z,3.20
2023-03-30T03:21:49.949Z,3.42
2023-03-30T03:24:18.979Z,3.75
2023-03-30T03:27:21.445Z,3.15
2023-03-30T03:30:07.840Z,3.90
2023-03-30T03:32:42.921Z,3.22
2023-03-30T03:35:10.934Z,3.55
2023-03-30T03:37:38.904Z,3.45
2023-03-30T03:40:09.208Z,3.50
2023-03-30T03:42:38.938Z,3.55
2023-03-30T03:45:13.315Z,3.20
2023-03-30T03:47:59.277Z,3.25
2023-03-30T03:50:39.110Z,3.17
2023-03-30T03:53:06.850Z,2.80
2023-03-30T03:55:35.303Z,2.92
2023-03-30T03:58:03.232Z,3.38
2023-03-30T04:00:35.499Z,3.55
2023-03-30T04:03:04.971Z,4.05
2023-03-30T04:05:32.860Z,3.35
2023-03-30T04:08:01.307Z,3.50
2023-03-30T04:10:29.270Z,3.63
2023-03-30T04:13:02.266Z,3.83
2023-03-30T04:15:49.900Z,3.22
2023-03-30T04:18:36.590Z,3.10
2023-03-30T04:21:23.617Z,2.38
2023-03-30T04:24:03.427Z,2.80
2023-03-30T04:27:09.791Z,2.72
2023-03-30T04:29:58.557Z,3.38
2023-03-30T04:32:39.629Z,3.50
2023-03-30T04:35:25.768Z,3.03
2023-03-30T04:38:13.902Z,2.05
2023-03-30T04:41:05.613Z,2.75
2023-03-30T04:43:54.032Z,2.83
2023-03-30T04:46:46.917Z,2.72
2023-03-30T04:49:45.980Z,2.40
2023-03-30T04:52:31.895Z,2.75
2023-03-30T04:55:20.512Z,2.22
2023-03-30T04:58:06.260Z,2.35
2023-03-30T05:00:54.005Z,1.83
2023-03-30T05:03:30.111Z,2.75
2023-03-30T05:06:16.525Z,2.70
2023-03-30T05:08:58.252Z,3.35
2023-03-30T05:11:40.351Z,2.67
2023-03-30T05:16:58.639Z,2.63
2023-03-30T05:19:34.792Z,2.70
2023-03-30T05:22:21.192Z,3.42
2023-03-30T05:24:57.232Z,2.80
2023-03-30T05:27:54.082Z,2.97
2023-03-30T05:30:47.654Z,3.85
2023-03-30T05:33:33.833Z,3.42
2023-03-30T05:36:24.304Z,4.05
2023-03-30T05:39:19.147Z,2.13
2023-03-30T05:42:05.607Z,2.80
2023-03-30T05:44:40.353Z,2.83
2023-03-30T05:47:26.590Z,2.42
2023-03-30T05:50:11.408Z,2.25
2023-03-30T05:52:54.510Z,2.58
2023-03-30T05:55:47.120Z,2.20
2023-03-30T05:58:27.478Z,2.38
2023-03-30T06:01:26.095Z,2.08
2023-03-30T06:03:54.251Z,2.28
2023-03-30T06:06:22.281Z,2.67
2023-03-30T06:08:52.278Z,2.53
2023-03-30T06:11:24.930Z,3.67
2023-03-30T06:14:01.935Z,3.13
2023-03-30T06:16:30.121Z,2.83
2023-03-30T06:18:58.095Z,3.03
2023-03-30T06:21:25.704Z,2.42
2023-03-30T06:24:16.079Z,2.60
2023-03-30T06:26:44.962Z,2.50
2023-03-30T06:29:12.571Z,2.83
2023-03-30T06:31:42.234Z,2.13
2023-03-30T06:34:29.876Z,3.38
2023-03-30T06:36:58.273Z,2.45
2023-03-30T06:39:27.257Z,2.65
2023-03-30T06:41:56.140Z,2.00
2023-03-30T06:44:41.904Z,2.20
2023-03-30T06:49:41.969Z,2.20
2023-03-30T06:52:31.676Z,2.00
2023-03-30T06:54:59.420Z,1.35
2023-03-30T06:57:28.443Z,1.95
2023-03-30T06:59:56.108Z,2.45
2023-03-30T07:02:23.728Z,2.38
2023-03-30T07:05:17.241Z,1.92
2023-03-30T07:07:55.289Z,2.28
2023-03-30T07:10:23.505Z,2.45
2023-03-30T07:12:53.880Z,2.40
2023-03-30T07:15:24.371Z,2.25
2023-03-30T07:17:52.149Z,1.80
2023-03-30T07:20:20.925Z,2.58
2023-03-30T07:23:08.628Z,0.88
2023-03-30T07:25:36.644Z,2.58
2023-03-30T07:28:14.399Z,2.00
2023-03-30T07:30:42.603Z,2.13
2023-03-30T07:33:11.618Z,1.73
2023-03-30T07:35:44.958Z,2.70
2023-03-30T07:38:14.162Z,2.17
2023-03-30T07:40:46.475Z,2.05
2023-03-30T07:43:17.226Z,3.05
2023-03-30T07:45:45.440Z,2.08
2023-03-30T07:48:19.084Z,2.33
2023-03-30T07:50:47.611Z,2.50
2023-03-30T07:53:15.170Z,2.60
2023-03-30T07:55:45.205Z,3.03
2023-03-30T07:58:23.542Z,2.75
2023-03-30T08:00:54.405Z,2.20
2023-03-30T08:03:28.553Z,2.78
2023-03-30T08:05:59.341Z,2.45
2023-03-30T08:08:29.296Z,3.25
2023-03-30T08:10:57.075Z,2.60
2023-03-30T08:13:27.195Z,2.63
2023-03-30T08:15:55.948Z,2.78
2023-03-30T08:18:23.655Z,3.08
2023-03-30T08:20:52.549Z,2.75
2023-03-30T08:23:20.959Z,2.65
2023-03-30T08:25:52.536Z,2.70
2023-03-30T08:28:21.414Z,3.25
2023-03-30T08:30:50.360Z,2.92
2023-03-30T08:33:18.164Z,3.25
2023-03-30T08:35:46.652Z,2.70
2023-03-30T08:38:17.404Z,2.88
2023-03-30T08:40:46.517Z,3.65
2023-03-30T08:43:23.456Z,3.47
2023-03-30T08:46:00.352Z,3.17
2023-03-30T08:48:29.268Z,2.95
2023-03-30T08:51:03.556Z,3.30
2023-03-30T08:53:33.872Z,4.82
2023-03-30T08:56:05.997Z,3.90
2023-03-30T08:58:40.386Z,3.30
2023-03-30T09:01:17.091Z,3.22
2023-03-30T09:03:55.858Z,3.08
2023-03-30T09:06:28.434Z,2.53
2023-03-30T09:08:56.353Z,4.47
2023-03-30T09:11:32.327Z,3.47
2023-03-30T09:14:03.016Z,2.53
2023-03-30T09:16:38.308Z,3.78
2023-03-30T09:19:09.707Z,2.85
2023-03-30T09:21:37.336Z,3.08
2023-03-30T09:24:13.240Z,2.78
2023-03-30T09:26:46.626Z,2.05
2023-03-30T09:29:19.916Z,2.00
2023-03-30T09:31:53.066Z,2.25
2023-03-30T09:34:27.313Z,2.42
2023-03-30T09:36:58.509Z,1.35
2023-03-30T09:39:28.109Z,1.73
2023-03-30T09:42:06.068Z,2.10
2023-03-30T09:44:37.209Z,1.55
2023-03-30T09:47:22.000Z,1.95
2023-03-30T09:49:49.783Z,1.90
2023-03-30T09:52:21.998Z,1.67
2023-03-30T09:54:49.510Z,1.75
2023-03-30T09:57:25.787Z,1.20
2023-03-30T09:59:55.751Z,1.60
2023-03-30T10:02:27.908Z,1.50
2023-03-30T10:05:02.360Z,1.83
2023-03-30T10:07:32.602Z,1.95
2023-03-30T10:10:01.779Z,1.55
2023-03-30T10:12:30.927Z,1.77
2023-03-30T10:15:02.121Z,1.80
2023-03-30T10:17:31.282Z,1.67
2023-03-30T10:20:24.324Z,1.88
2023-03-30T10:22:53.823Z,1.55
2023-03-30T10:25:23.958Z,2.05
2023-03-30T10:27:53.484Z,1.73
2023-03-30T10:30:25.818Z,1.83
2023-03-30T10:32:57.481Z,2.17
2023-03-30T10:35:26.800Z,2.05
2023-03-30T10:37:56.396Z,1.83
2023-03-30T10:40:27.528Z,1.70
2023-03-30T10:42:56.693Z,1.95
2023-03-30T10:45:29.775Z,2.60
2023-03-30T10:48:10.706Z,2.92
2023-03-30T10:50:46.268Z,2.80
2023-03-30T10:53:23.731Z,2.15
2023-03-30T10:55:54.862Z,2.65
2023-03-30T10:58:32.280Z,1.88
2023-03-30T11:01:07.215Z,2.42
2023-03-30T11:03:40.224Z,2.20
2023-03-30T11:06:12.416Z,3.30
2023-03-30T11:08:42.626Z,3.10
2023-03-30T11:11:13.919Z,2.83
2023-03-30T11:13:46.098Z,2.67
2023-03-30T11:16:23.033Z,2.80
2023-03-30T11:18:55.835Z,2.08
2023-03-30T11:21:29.827Z,2.80
2023-03-30T11:23:59.822Z,2.42
2023-03-30T11:26:33.558Z,2.92
2023-03-30T11:29:07.231Z,3.10
2023-03-30T11:31:46.021Z,3.45
2023-03-30T11:34:21.726Z,2.40
2023-03-30T11:36:55.670Z,3.05
2023-03-30T11:39:32.091Z,2.60
2023-03-30T11:42:05.243Z,2.15
2023-03-30T11:44:33.244Z,1.58
2023-03-30T11:47:10.506Z,2.38
2023-03-30T11:49:47.705Z,1.65
2023-03-30T11:52:26.353Z,1.98
2023-03-30T11:55:20.885Z,1.98
2023-03-30T11:57:53.230Z,1.77
2023-03-30T12:00:29.144Z,1.67
2023-03-30T12:03:06.602Z,1.98
2023-03-30T12:05:38.896Z,2.17
2023-03-30T12:08:19.694Z,1.55
2023-03-30T12:10:50.647Z,1.63
2023-03-30T12:13:19.853Z,1.77
2023-03-30T12:15:49.980Z,1.50
2023-03-30T12:18:27.634Z,1.67
2023-03-30T12:21:02.322Z,1.48
2023-03-30T12:23:37.717Z,1.73
2023-03-30T12:26:17.336Z,2.55
2023-03-30T12:29:08.336Z,2.05
2023-03-30T12:32:08.379Z,2.08
2023-03-30T12:37:10.044Z,1.95
2023-03-30T12:39:44.767Z,1.90
2023-03-30T12:42:26.346Z,1.58
2023-03-30T12:45:22.754Z,3.05
2023-03-30T12:48:18.856Z,1.15
2023-03-30T12:50:52.404Z,2.20
2023-03-30T12:53:39.288Z,1.98
2023-03-30T12:56:08.850Z,2.33
2023-03-30T12:59:02.651Z,1.88
2023-03-30T13:01:45.393Z,1.90
2023-03-30T13:04:16.159Z,2.00
2023-03-30T13:06:49.453Z,1.45
2023-03-30T13:09:35.948Z,1.88
2023-03-30T13:12:29.203Z,2.53
2023-03-30T13:15:03.345Z,1.92
2023-03-30T13:17:50.865Z,2.08
2023-03-30T13:23:01.175Z,1.95
2023-03-30T13:25:40.826Z,1.98
2023-03-30T13:28:37.911Z,1.98
2023-03-30T13:31:11.236Z,2.45
2023-03-30T13:33:40.727Z,1.75
2023-03-30T13:36:12.139Z,1.80
2023-03-30T13:39:00.287Z,2.30
2023-03-30T13:41:36.272Z,1.58
2023-03-30T13:44:20.849Z,1.88
2023-03-30T13:46:52.150Z,2.13
2023-03-30T13:49:36.932Z,1.38
2023-03-30T13:52:06.831Z,2.08
2023-03-30T13:54:35.817Z,1.73
2023-03-30T13:57:08.564Z,2.40
2023-03-30T13:59:38.683Z,2.35
2023-03-30T14:02:06.865Z,1.58
2023-03-30T14:04:37.139Z,1.90
2023-03-30T14:07:19.528Z,2.13
2023-03-30T14:10:06.311Z,1.85
2023-03-30T14:12:38.212Z,1.70
2023-03-30T14:15:17.019Z,1.90
2023-03-30T14:17:48.702Z,1.40
2023-03-30T14:20:30.072Z,1.35
2023-03-30T14:22:58.540Z,1.52
2023-03-30T14:25:28.542Z,1.67
2023-03-30T14:27:58.985Z,1.55
2023-03-30T14:30:29.456Z,1.25
2023-03-30T14:33:07.960Z,1.70
2023-03-30T14:38:14.196Z,2.15
2023-03-30T14:40:44.445Z,1.42
2023-03-30T14:43:17.912Z,1.77
2023-03-30T14:45:45.612Z,1.35
2023-03-30T14:48:24.078Z,1.45
2023-03-30T14:53:23.457Z,1.88
2023-03-30T14:55:51.547Z,2.08
2023-03-30T14:58:21.129Z,1.83
2023-03-30T15:00:48.834Z,1.95
2023-03-30T15:03:26.659Z,2.10
2023-03-30T15:06:01.381Z,0.85
2023-03-30T15:08:32.246Z,0.70
2023-03-30T15:11:02.517Z,0.40
2023-03-30T15:13:36.087Z,0.47
2023-03-30T15:16:05.410Z,0.52
2023-03-30T15:18:34.172Z,0.75
2023-03-30T15:21:01.763Z,0.43
2023-03-30T15:23:32.735Z,0.93
2023-03-30T15:26:02.252Z,0.50
2023-03-30T15:28:33.469Z,0.50
2023-03-30T15:31:01.030Z,0.52
2023-03-30T15:33:32.366Z,0.45
2023-03-30T15:36:05.628Z,0.60
2023-03-30T15:38:36.153Z,0.52
2023-03-30T15:41:04.394Z,0.63
2023-03-30T15:43:38.357Z,0.98
2023-03-30T15:46:07.332Z,0.70
2023-03-30T15:48:40.367Z,1.00
2023-03-30T15:51:12.589Z,1.50
2023-03-30T15:53:42.581Z,1.40
2023-03-30T15:56:14.484Z,1.17
2023-03-30T15:58:43.593Z,0.60
2023-03-30T16:01:14.533Z,0.43
2023-03-30T16:03:50.789Z,0.80
2023-03-30T16:06:18.662Z,0.90
2023-03-30T16:08:46.263Z,1.00
2023-03-30T16:11:15.236Z,1.50
2023-03-30T16:13:45.374Z,0.90
2023-03-30T16:16:13.935Z,1.10
2023-03-30T16:18:42.776Z,1.77
2023-03-30T16:21:12.271Z,1.60
2023-03-30T16:23:40.096Z,1.73
2023-03-30T16:26:09.612Z,1.52
2023-03-30T16:28:40.714Z,1.13
2023-03-30T16:31:15.865Z,1.45
2023-03-30T16:33:43.376Z,1.75
2023-03-30T16:36:14.170Z,1.05
2023-03-30T16:38:41.680Z,1.00
2023-03-30T16:41:11.699Z,1.10
2023-03-30T16:43:39.207Z,1.20
2023-03-30T16:46:07.211Z,0.80
2023-03-30T16:48:36.476Z,1.63
2023-03-30T16:51:05.024Z,1.13
2023-03-30T16:53:33.224Z,1.50
2023-03-30T16:56:01.756Z,1.10
2023-03-30T16:58:29.462Z,1.15
2023-03-30T17:01:03.221Z,1.50
2023-03-30T17:03:31.959Z,1.45
2023-03-30T17:06:00.813Z,1.65
2023-03-30T17:08:29.486Z,1.40
2023-03-30T17:10:59.644Z,1.23
2023-03-30T17:13:27.441Z,1.13
2023-03-30T17:15:54.974Z,1.40
2023-03-30T17:18:23.837Z,1.48
2023-03-30T17:20:52.235Z,2.17
2023-03-30T17:23:21.465Z,1.05
2023-03-30T17:25:49.589Z,1.63
2023-03-30T17:28:22.127Z,1.40
2023-03-30T17:33:18.314Z,1.65
2023-03-30T17:35:47.540Z,1.10
2023-03-30T17:38:16.025Z,1.20
2023-03-30T17:40:46.052Z,1.05
2023-03-30T17:43:14.486Z,1.30
2023-03-30T17:45:43.552Z,1.60
2023-03-30T17:48:13.717Z,1.65
2023-03-30T17:50:43.544Z,1.50
2023-03-30T17:53:13.222Z,1.75
2023-03-30T17:55:41.248Z,2.40
2023-03-30T17:58:18.115Z,2.60
2023-03-30T18:00:47.240Z,2.15
2023-03-30T18:03:15.194Z,1.70
2023-03-30T18:05:44.220Z,1.60
2023-03-30T18:08:17.154Z,1.20
2023-03-30T18:10:47.859Z,1.40
2023-03-30T18:13:17.979Z,1.40
2023-03-30T18:15:49.111Z,1.40
2023-03-30T18:18:22.478Z,1.67
2023-03-30T18:20:51.264Z,1.58
2023-03-30T18:23:19.233Z,0.95
2023-03-30T18:25:47.182Z,0.93
2023-03-30T18:28:17.003Z,1.55
2023-03-30T18:30:46.162Z,1.20
2023-03-30T18:33:16.023Z,1.60
2023-03-30T18:35:44.411Z,1.42
2023-03-30T18:38:15.373Z,1.35
2023-03-30T18:40:45.235Z,1.45
2023-03-30T18:43:13.698Z,1.75
2023-03-30T18:45:42.348Z,1.38
2023-03-30T18:48:14.510Z,1.80
2023-03-30T18:50:43.483Z,1.60
2023-03-30T18:53:13.393Z,1.55
2023-03-30T18:55:42.372Z,1.27
2023-03-30T18:58:14.635Z,1.05
2023-03-30T19:00:42.273Z,1.23
2023-03-30T19:03:13.485Z,1.45
2023-03-30T19:05:41.537Z,1.55
2023-03-30T19:08:11.576Z,1.48
2023-03-30T19:10:40.335Z,2.53
2023-03-30T19:13:08.354Z,1.42
2023-03-30T19:15:36.838Z,1.73
2023-03-30T19:18:06.032Z,1.95
2023-03-30T19:20:37.754Z,1.85
2023-03-30T19:23:05.354Z,1.40
2023-03-30T19:25:33.637Z,1.70
2023-03-30T19:28:04.261Z,1.40
2023-03-30T19:30:34.811Z,1.40
2023-03-30T19:33:05.750Z,1.52
2023-03-30T19:35:35.144Z,1.50
2023-03-30T19:38:02.913Z,1.55
2023-03-30T19:40:32.225Z,1.67
2023-03-30T19:42:59.735Z,1.70
2023-03-30T19:45:27.241Z,1.30
2023-03-30T19:47:54.782Z,1.23
2023-03-30T19:50:24.872Z,1.33
2023-03-30T19:52:54.907Z,1.40
2023-03-30T19:55:23.033Z,1.60
2023-03-30T19:57:50.561Z,1.50
2023-03-30T20:00:19.655Z,1.42
2023-03-30T20:02:48.354Z,1.20
2023-03-30T20:05:16.778Z,1.23
2023-03-30T20:07:45.398Z,1.67
2023-03-30T20:10:18.768Z,1.73
2023-03-30T20:12:46.698Z,1.67
2023-03-30T20:15:14.784Z,1.63
2023-03-30T20:17:42.615Z,1.70
2023-03-30T20:20:12.568Z,1.63
2023-03-30T20:22:42.612Z,1.50
2023-03-30T20:25:11.845Z,1.40
2023-03-30T20:27:40.990Z,1.40
2023-03-30T20:30:09.664Z,1.60
2023-03-30T20:32:37.196Z,1.70
2023-03-30T20:35:05.241Z,1.58
2023-03-30T20:37:33.109Z,1.13
2023-03-30T20:40:09.744Z,1.08
2023-03-30T20:42:39.813Z,1.33
2023-03-30T20:45:10.056Z,1.85
2023-03-30T20:47:38.200Z,1.15
2023-03-30T20:50:07.528Z,1.13
2023-03-30T20:52:35.073Z,1.52
2023-03-30T20:55:02.616Z,1.63
2023-03-30T20:57:30.314Z,1.65
2023-03-30T20:59:57.844Z,1.40
2023-03-30T21:02:27.386Z,1.30
2023-03-30T21:04:56.643Z,1.75
2023-03-30T21:07:24.739Z,1.38
2023-03-30T21:09:52.338Z,1.55
2023-03-30T21:12:20.479Z,1.50
2023-03-30T21:14:48.103Z,1.58
2023-03-30T21:17:15.597Z,1.40
2023-03-30T21:19:44.426Z,1.80
2023-03-30T21:22:11.997Z,1.65
2023-03-30T21:24:39.485Z,1.50
2023-03-30T21:27:07.055Z,1.50
2023-03-30T21:29:34.570Z,1.02
2023-03-30T21:32:02.105Z,1.13
2023-03-30T21:34:29.842Z,1.23
2023-03-30T21:36:58.882Z,1.40
2023-03-30T21:39:26.499Z,1.58
2023-03-30T21:41:53.990Z,1.20
2023-03-30T21:44:21.508Z,1.90
2023-03-30T21:46:49.042Z,1.17
2023-03-30T21:49:16.618Z,1.42
2023-03-30T21:51:44.139Z,1.25
2023-03-30T21:54:13.976Z,1.33
2023-03-30T21:56:41.721Z,0.90
2023-03-30T21:59:09.640Z,1.38
2023-03-30T22:01:38.735Z,1.20
2023-03-30T22:04:07.292Z,1.60
2023-03-30T22:06:34.947Z,1.30
2023-03-30T22:09:02.502Z,1.33
2023-03-30T22:11:31.342Z,1.13
2023-03-30T22:13:59.127Z,1.20
2023-03-30T22:16:29.088Z,1.20
2023-03-30T22:18:57.204Z,1.00
2023-03-30T22:21:29.074Z,1.20
2023-03-30T22:23:56.660Z,1.60
2023-03-30T22:26:24.304Z,1.77
2023-03-30T22:28:53.144Z,1.27
2023-03-30T22:31:21.032Z,1.00
2023-03-30T22:33:49.037Z,1.25
2023-03-30T22:36:19.101Z,1.35
2023-03-30T22:38:46.807Z,1.83
2023-03-30T22:41:14.746Z,1.67
2023-03-30T22:43:42.421Z,1.25
2023-03-30T22:46:11.836Z,0.98
2023-03-30T22:48:41.404Z,2.08
2023-03-30T22:51:09.641Z,1.33
2023-03-30T22:53:38.501Z,1.58
2023-03-30T22:56:07.640Z,0.93
2023-03-30T22:58:35.973Z,1.20
2023-03-30T23:01:05.978Z,1.58
2023-03-30T23:03:34.917Z,1.48
2023-03-30T23:06:02.946Z,2.67
2023-03-30T23:08:31.133Z,1.30
2023-03-30T23:11:04.789Z,0.90
2023-03-30T23:13:33.426Z,1.30
2023-03-30T23:16:01.518Z,1.10
2023-03-30T23:18:29.312Z,0.85
2023-03-30T23:20:58.153Z,1.17
2023-03-30T23:23:25.722Z,1.20
2023-03-30T23:25:53.339Z,1.05
2023-03-30T23:28:20.886Z,0.93
2023-03-30T23:30:48.444Z,1.13
2023-03-30T23:33:16.418Z,1.15
2023-03-30T23:35:49.041Z,1.20
2023-03-30T23:38:17.972Z,1.05
2023-03-30T23:40:45.544Z,1.55
2023-03-30T23:43:13.228Z,1.25
2023-03-30T23:45:42.739Z,1.42
2023-03-30T23:48:10.531Z,1.30
2023-03-30T23:50:38.054Z,1.50
2023-03-30T23:53:06.956Z,1.15
2023-03-30T23:55:35.812Z,1.50
2023-03-30T23:58:03.368Z,1.20
